createdAt,value
2022-10-10T00:01:24.331Z,8.32
2022-10-10T00:03:52.833Z,6.50
2022-10-10T00:06:22.132Z,5.63
2022-10-10T00:08:52.270Z,6.22
2022-10-10T00:11:23.819Z,2.95
2022-10-10T00:13:52.495Z,4.32
2022-10-10T00:16:20.988Z,6.05
2022-10-10T00:18:50.024Z,5.10
2022-10-10T00:21:18.277Z,4.22
2022-10-10T00:23:46.690Z,7.68
2022-10-10T00:26:19.237Z,3.08
2022-10-10T00:28:47.768Z,4.88
2022-10-10T00:31:15.992Z,3.35
2022-10-10T00:33:44.384Z,5.78
2022-10-10T00:36:12.860Z,3.92
2022-10-10T00:38:41.072Z,11.05
2022-10-10T00:41:10.383Z,4.40
2022-10-10T00:43:40.780Z,4.60
2022-10-10T00:46:09.695Z,4.85
2022-10-10T00:48:41.154Z,5.22
2022-10-10T00:51:11.801Z,8.20
2022-10-10T00:53:44.256Z,5.50
2022-10-10T00:56:15.487Z,9.23
2022-10-10T00:58:49.808Z,5.38
2022-10-10T01:01:18.278Z,3.75
2022-10-10T01:03:46.670Z,5.82
2022-10-10T01:06:15.234Z,6.85
2022-10-10T01:08:44.378Z,5.00
2022-10-10T01:11:30.549Z,4.47
2022-10-10T01:14:10.094Z,6.50
2022-10-10T01:16:51.640Z,2.85
2022-10-10T01:19:48.859Z,9.32
2022-10-10T01:22:28.010Z,10.10
2022-10-10T01:25:01.540Z,5.15
2022-10-10T01:27:36.175Z,5.70
2022-10-10T01:30:09.258Z,6.70
2022-10-10T01:32:44.329Z,8.32
2022-10-10T01:35:33.252Z,4.30
2022-10-10T01:38:21.591Z,9.82
2022-10-10T01:40:55.191Z,5.40
2022-10-10T01:43:26.550Z,5.05
2022-10-10T01:45:56.263Z,3.58
2022-10-10T01:48:29.451Z,6.40
2022-10-10T01:51:16.758Z,8.93
2022-10-10T01:53:51.792Z,8.32
2022-10-10T01:56:33.722Z,5.28
2022-10-10T01:59:17.315Z,3.92
2022-10-10T02:01:54.104Z,3.33
2022-10-10T02:04:31.379Z,5.18
2022-10-10T02:07:04.745Z,5.82
2022-10-10T02:09:39.882Z,7.35
2022-10-10T02:12:10.956Z,7.82
2022-10-10T02:14:43.966Z,4.57
2022-10-10T02:17:16.627Z,6.38
2022-10-10T02:19:48.104Z,4.75
2022-10-10T02:22:16.680Z,8.13
2022-10-10T02:24:45.876Z,4.97
2022-10-10T02:27:20.094Z,5.20
2022-10-10T02:29:50.423Z,4.00
2022-10-10T02:32:25.453Z,5.53
2022-10-10T02:34:57.315Z,6.65
2022-10-10T02:37:26.829Z,2.67
2022-10-10T02:39:59.715Z,3.15
2022-10-10T02:42:29.224Z,8.30
2022-10-10T02:44:59.137Z,5.57
2022-10-10T02:47:29.132Z,6.18
2022-10-10T02:49:57.369Z,4.78
2022-10-10T02:52:25.996Z,4.07
2022-10-10T02:54:54.071Z,8.43
2022-10-10T02:57:22.256Z,8.60
2022-10-10T02:59:50.494Z,9.10
2022-10-10T03:02:18.726Z,10.18
2022-10-10T03:04:48.270Z,8.18
2022-10-10T03:07:16.621Z,5.20
2022-10-10T03:09:44.780Z,9.18
2022-10-10T03:12:13.182Z,6.97
2022-10-10T03:14:41.392Z,10.23
2022-10-10T03:17:09.538Z,6.35
2022-10-10T03:19:37.736Z,5.03
2022-10-10T03:22:07.270Z,7.00
2022-10-10T03:24:35.535Z,6.47
2022-10-10T03:27:03.627Z,6.13
2022-10-10T03:29:31.956Z,7.05
2022-10-10T03:32:00.095Z,4.28
2022-10-10T03:34:28.529Z,8.65
2022-10-10T03:36:56.793Z,4.82
2022-10-10T03:39:27.025Z,8.70
2022-10-10T03:41:55.135Z,10.10
2022-10-10T03:44:23.566Z,7.35
2022-10-10T03:46:51.772Z,8.60
2022-10-10T03:49:19.959Z,4.68
2022-10-10T03:51:48.255Z,7.97
2022-10-10T03:54:16.545Z,6.03
2022-10-10T03:56:46.891Z,6.40
2022-10-10T03:59:15.086Z,10.35
2022-10-10T04:01:43.448Z,8.93
2022-10-10T04:04:11.628Z,8.00
2022-10-10T04:06:39.957Z,6.60
2022-10-10T04:09:08.383Z,7.93
2022-10-10T04:11:39.264Z,9.52
2022-10-10T04:14:09.661Z,6.95
2022-10-10T04:16:37.922Z,6.95
2022-10-10T04:19:06.166Z,9.43
2022-10-10T04:21:34.398Z,11.73
2022-10-10T04:24:02.819Z,7.88
2022-10-10T04:26:31.255Z,9.60
2022-10-10T04:29:00.076Z,8.73
2022-10-10T04:31:29.669Z,9.27
2022-10-10T04:33:57.903Z,9.82
2022-10-10T04:36:26.401Z,9.40
2022-10-10T04:38:54.591Z,6.43
2022-10-10T04:41:22.785Z,7.30
2022-10-10T04:43:51.389Z,9.77
2022-10-10T04:46:19.685Z,9.48
2022-10-10T04:48:49.249Z,9.85
2022-10-10T04:51:17.649Z,8.77
2022-10-10T04:53:50.292Z,14.77
2022-10-10T04:56:19.152Z,17.88
2022-10-10T04:58:47.267Z,9.57
2022-10-10T05:01:15.630Z,17.95
2022-10-10T05:03:44.002Z,23.70
2022-10-10T05:06:13.895Z,14.52
2022-10-10T05:08:42.371Z,21.83
2022-10-10T05:11:10.669Z,14.80
2022-10-10T05:13:39.139Z,14.07
2022-10-10T05:16:07.978Z,12.27
2022-10-10T05:18:37.459Z,12.00
2022-10-10T05:21:07.223Z,16.08
2022-10-10T05:23:38.837Z,13.52
2022-10-10T05:26:07.233Z,19.73
2022-10-10T05:28:36.667Z,8.68
2022-10-10T05:31:05.664Z,16.40
2022-10-10T05:33:34.564Z,12.43
2022-10-10T05:36:05.156Z,22.80
2022-10-10T05:38:33.640Z,19.33
2022-10-10T05:41:03.557Z,16.13
2022-10-10T05:43:32.767Z,26.73
2022-10-10T05:46:01.197Z,11.88
2022-10-10T05:48:30.247Z,19.77
2022-10-10T05:50:59.678Z,15.35
2022-10-10T05:53:28.889Z,28.23
2022-10-10T05:55:57.659Z,17.02
2022-10-10T05:58:28.328Z,13.25
2022-10-10T06:00:56.950Z,14.93
2022-10-10T06:03:25.231Z,22.83
2022-10-10T06:05:53.720Z,24.33
2022-10-10T06:08:22.062Z,15.48
2022-10-10T06:10:50.508Z,22.60
2022-10-10T06:13:24.311Z,18.05
2022-10-10T06:18:23.683Z,26.45
2022-10-10T06:20:53.053Z,13.38
2022-10-10T06:23:21.410Z,11.00
2022-10-10T06:25:53.098Z,19.90
2022-10-10T06:28:21.614Z,20.88
2022-10-10T06:30:50.857Z,19.63
2022-10-10T06:33:20.812Z,15.68
2022-10-10T06:35:50.252Z,18.30
2022-10-10T06:38:18.902Z,17.63
2022-10-10T06:40:48.409Z,18.92
2022-10-10T06:43:17.943Z,26.02
2022-10-10T06:45:47.729Z,22.63
2022-10-10T06:48:16.841Z,13.80
2022-10-10T06:50:57.401Z,13.02
2022-10-10T06:53:26.321Z,16.17
2022-10-10T06:55:55.226Z,17.55
2022-10-10T06:58:23.475Z,14.88
2022-10-10T07:00:53.494Z,4.32
2022-10-10T07:03:22.388Z,10.13
2022-10-10T07:05:53.532Z,9.00
2022-10-10T07:08:22.304Z,6.53
2022-10-10T07:10:51.296Z,7.25
2022-10-10T07:13:20.665Z,6.63
2022-10-10T07:15:48.884Z,7.35
2022-10-10T07:18:18.856Z,9.68
2022-10-10T07:20:47.136Z,8.63
2022-10-10T07:23:17.425Z,13.25
2022-10-10T07:25:46.159Z,5.28
2022-10-10T07:28:14.419Z,8.45
2022-10-10T07:30:44.114Z,7.32
2022-10-10T07:33:12.714Z,13.85
2022-10-10T07:35:41.018Z,16.20
2022-10-10T07:38:09.780Z,19.52
2022-10-10T07:40:41.232Z,9.85
2022-10-10T07:43:09.552Z,8.73
2022-10-10T07:45:38.602Z,16.13
2022-10-10T07:48:07.018Z,9.48
2022-10-10T07:50:35.285Z,12.80
2022-10-10T07:53:03.564Z,7.82
2022-10-10T07:55:31.833Z,9.13
2022-10-10T07:58:03.839Z,12.95
2022-10-10T08:00:33.554Z,9.07
2022-10-10T08:03:02.142Z,15.30
2022-10-10T08:05:30.422Z,13.27
2022-10-10T08:07:58.855Z,10.25
2022-10-10T08:10:28.821Z,9.32
2022-10-10T08:12:57.104Z,12.30
2022-10-10T08:15:27.920Z,7.97
2022-10-10T08:18:11.896Z,9.83
2022-10-10T08:20:40.191Z,10.25
2022-10-10T08:23:08.405Z,13.32
2022-10-10T08:25:36.892Z,10.07
2022-10-10T08:28:05.504Z,11.07
2022-10-10T08:30:35.108Z,11.20
2022-10-10T08:33:03.507Z,9.77
2022-10-10T08:35:31.596Z,13.32
2022-10-10T08:37:59.950Z,10.75
2022-10-10T08:40:28.960Z,10.98
2022-10-10T08:43:02.532Z,11.32
2022-10-10T08:45:31.717Z,11.43
2022-10-10T08:48:04.009Z,13.25
2022-10-10T08:50:37.722Z,10.88
2022-10-10T08:53:15.859Z,15.55
2022-10-10T08:55:46.363Z,15.07
2022-10-10T08:58:21.002Z,8.10
2022-10-10T09:00:53.060Z,13.98
2022-10-10T09:03:30.637Z,10.85
2022-10-10T09:06:18.416Z,10.77
2022-10-10T09:08:56.289Z,11.90
2022-10-10T09:11:38.806Z,9.90
2022-10-10T09:14:18.854Z,10.93
2022-10-10T09:16:54.962Z,10.75
2022-10-10T09:19:37.933Z,11.02
2022-10-10T09:22:13.661Z,11.60
2022-10-10T09:24:46.881Z,11.32
2022-10-10T09:27:21.616Z,16.60
2022-10-10T09:29:56.027Z,11.40
2022-10-10T09:32:28.050Z,12.95
2022-10-10T09:35:05.632Z,11.45
2022-10-10T09:37:53.713Z,8.55
2022-10-10T09:40:28.594Z,12.48
2022-10-10T09:42:57.545Z,11.48
2022-10-10T09:45:30.376Z,14.45
2022-10-10T09:47:58.607Z,10.30
2022-10-10T09:50:28.590Z,20.23
2022-10-10T09:52:58.615Z,16.42
2022-10-10T09:55:30.182Z,11.45
2022-10-10T09:58:03.858Z,10.57
2022-10-10T10:00:36.797Z,10.68
2022-10-10T10:03:16.407Z,17.98
2022-10-10T10:05:54.319Z,11.82
2022-10-10T10:08:34.264Z,15.70
2022-10-10T10:11:03.449Z,10.63
2022-10-10T10:13:33.983Z,13.25
2022-10-10T10:16:08.286Z,11.18
2022-10-10T10:18:42.927Z,11.10
2022-10-10T10:21:17.234Z,13.27
2022-10-10T10:23:52.063Z,12.00
2022-10-10T10:26:23.850Z,10.18
2022-10-10T10:28:53.882Z,12.70
2022-10-10T10:31:42.556Z,11.43
2022-10-10T10:34:27.876Z,11.40
2022-10-10T10:37:05.277Z,12.30
2022-10-10T10:39:44.906Z,14.10
2022-10-10T10:42:26.697Z,11.07
2022-10-10T10:45:06.347Z,10.65
2022-10-10T10:47:45.474Z,13.00
2022-10-10T10:50:28.398Z,9.52
2022-10-10T10:53:05.471Z,12.32
2022-10-10T10:55:41.275Z,11.52
2022-10-10T11:01:54.735Z,13.18
2022-10-10T11:05:20.939Z,14.55
2022-10-10T11:07:47.804Z,8.52
2022-10-10T11:10:28.671Z,8.50
2022-10-10T11:13:08.134Z,11.10
2022-10-10T11:18:33.923Z,11.15
2022-10-10T11:21:06.338Z,10.82
2022-10-10T11:23:41.490Z,9.23
2022-10-10T11:26:19.476Z,12.40
2022-10-10T11:28:52.509Z,12.27
2022-10-10T11:31:24.737Z,8.60
2022-10-10T11:33:57.970Z,6.68
2022-10-10T11:36:31.442Z,8.87
2022-10-10T11:39:06.527Z,6.75
2022-10-10T11:41:40.739Z,9.55
2022-10-10T11:44:13.471Z,12.90
2022-10-10T11:46:44.917Z,8.35
2022-10-10T11:49:21.094Z,16.17
2022-10-10T11:52:32.450Z,11.40
2022-10-10T11:55:07.952Z,11.45
2022-10-10T11:57:42.830Z,8.25
2022-10-10T12:00:14.908Z,7.40
2022-10-10T12:02:45.078Z,7.32
2022-10-10T12:05:25.313Z,13.80
2022-10-10T12:08:10.836Z,10.40
2022-10-10T12:10:47.727Z,7.75
2022-10-10T12:13:29.774Z,9.35
2022-10-10T12:16:04.470Z,9.65
2022-10-10T12:18:41.389Z,7.32
2022-10-10T12:21:12.550Z,14.80
2022-10-10T12:23:43.104Z,10.98
2022-10-10T12:26:17.741Z,11.07
2022-10-10T12:29:05.792Z,10.68
2022-10-10T12:31:38.964Z,9.32
2022-10-10T12:34:37.981Z,9.10
2022-10-10T12:37:22.489Z,9.07
2022-10-10T12:40:28.928Z,8.30
2022-10-10T12:43:24.100Z,12.63
2022-10-10T12:46:16.214Z,10.20
2022-10-10T12:48:45.476Z,10.07
2022-10-10T12:51:23.216Z,15.30
2022-10-10T12:53:56.054Z,13.43
2022-10-10T12:56:35.888Z,10.30
2022-10-10T12:59:04.877Z,11.70
2022-10-10T13:01:45.835Z,9.80
2022-10-10T13:04:18.042Z,9.15
2022-10-10T13:06:49.316Z,15.95
2022-10-10T13:09:21.901Z,11.43
2022-10-10T13:11:59.256Z,10.73
2022-10-10T13:14:39.091Z,9.38
2022-10-10T13:17:24.053Z,9.65
2022-10-10T13:19:52.852Z,11.30
2022-10-10T13:22:22.141Z,15.75
2022-10-10T13:24:52.156Z,13.70
2022-10-10T13:27:22.964Z,19.10
2022-10-10T13:29:52.299Z,17.45
2022-10-10T13:32:25.448Z,15.20
2022-10-10T13:34:55.874Z,10.00
2022-10-10T13:37:25.287Z,7.40
2022-10-10T13:39:55.001Z,17.73
2022-10-10T13:42:34.163Z,20.90
2022-10-10T13:45:05.339Z,12.48
2022-10-10T13:47:51.397Z,12.77
2022-10-10T13:50:23.732Z,12.90
2022-10-10T13:52:52.728Z,13.50
2022-10-10T13:55:26.492Z,15.93
2022-10-10T13:58:00.828Z,9.80
2022-10-10T14:00:32.822Z,16.15
2022-10-10T14:03:03.070Z,10.23
2022-10-10T14:05:33.470Z,8.65
2022-10-10T14:08:01.747Z,9.52
2022-10-10T14:10:36.135Z,9.32
2022-10-10T14:13:04.505Z,13.82
2022-10-10T14:15:36.855Z,18.50
2022-10-10T14:18:16.434Z,15.30
2022-10-10T14:20:45.513Z,19.88
2022-10-10T14:23:14.107Z,10.32
2022-10-10T14:25:44.438Z,12.00
2022-10-10T14:28:17.898Z,11.60
2022-10-10T14:30:47.065Z,9.27
2022-10-10T14:33:19.462Z,10.23
2022-10-10T14:35:49.377Z,10.60
2022-10-10T14:38:18.129Z,8.85
2022-10-10T14:40:49.572Z,13.93
2022-10-10T14:43:20.615Z,10.18
2022-10-10T14:45:51.260Z,14.40
2022-10-10T14:48:21.268Z,16.08
2022-10-10T14:50:51.252Z,11.65
2022-10-10T14:53:19.639Z,7.82
2022-10-10T14:55:50.406Z,7.50
2022-10-10T14:58:23.505Z,9.50
2022-10-10T15:00:53.072Z,8.85
2022-10-10T15:03:23.356Z,12.27
2022-10-10T15:05:51.897Z,10.32
2022-10-10T15:08:20.405Z,9.60
2022-10-10T15:10:49.004Z,6.88
2022-10-10T15:13:18.073Z,7.97
2022-10-10T15:15:48.652Z,11.27
2022-10-10T15:18:49.240Z,10.18
2022-10-10T15:21:11.692Z,7.38
2022-10-10T15:23:40.255Z,8.00
2022-10-10T15:26:09.388Z,8.90
2022-10-10T15:28:38.369Z,10.90
2022-10-10T15:31:07.213Z,9.30
2022-10-10T15:33:35.451Z,11.63
2022-10-10T15:36:10.899Z,7.72
2022-10-10T15:38:42.217Z,6.28
2022-10-10T15:41:11.362Z,6.40
2022-10-10T15:43:45.626Z,8.88
2022-10-10T15:46:14.377Z,11.25
2022-10-10T15:48:42.845Z,10.70
2022-10-10T15:51:11.187Z,7.47
2022-10-10T15:53:39.567Z,9.77
2022-10-10T15:56:10.874Z,12.20
2022-10-10T15:58:40.138Z,12.50
2022-10-10T16:01:14.840Z,11.13
2022-10-10T16:03:43.862Z,12.25
2022-10-10T16:06:12.781Z,12.55
2022-10-10T16:08:41.482Z,8.27
2022-10-10T16:11:13.045Z,11.38
2022-10-10T16:13:43.239Z,8.25
2022-10-10T16:16:20.732Z,7.93
2022-10-10T16:18:50.888Z,9.10
2022-10-10T16:21:22.242Z,6.75
2022-10-10T16:23:55.655Z,9.32
2022-10-10T16:26:29.501Z,10.35
2022-10-10T16:28:59.777Z,7.75
2022-10-10T16:31:32.666Z,10.27
2022-10-10T16:34:01.236Z,17.33
2022-10-10T16:36:31.564Z,7.82
2022-10-10T16:39:00.672Z,13.40
2022-10-10T16:41:49.687Z,15.55
2022-10-10T16:44:18.818Z,13.32
2022-10-10T16:46:48.747Z,15.57
2022-10-10T16:49:17.396Z,14.10
2022-10-10T16:51:49.093Z,14.48
2022-10-10T16:54:17.549Z,12.27
2022-10-10T16:56:47.503Z,17.88
2022-10-10T16:59:19.535Z,13.10
2022-10-10T17:01:48.261Z,13.57
2022-10-10T17:04:16.428Z,13.45
2022-10-10T17:06:45.040Z,14.05
2022-10-10T17:09:13.505Z,14.40
2022-10-10T17:11:41.680Z,13.93
2022-10-10T17:14:12.364Z,15.50
2022-10-10T17:19:29.036Z,18.42
2022-10-10T17:21:57.562Z,12.38
2022-10-10T17:24:25.602Z,12.38
2022-10-10T17:26:53.914Z,12.60
2022-10-10T17:29:23.872Z,14.15
2022-10-10T17:31:52.667Z,12.75
2022-10-10T17:34:21.517Z,16.13
2022-10-10T17:36:50.105Z,13.88
2022-10-10T17:39:18.308Z,12.48
2022-10-10T17:41:49.295Z,14.15
2022-10-10T17:44:17.902Z,14.43
2022-10-10T17:46:47.815Z,12.63
2022-10-10T17:49:16.143Z,15.65
2022-10-10T17:51:44.385Z,13.50
2022-10-10T17:54:13.610Z,17.88
2022-10-10T17:56:44.767Z,13.85
2022-10-10T17:59:13.481Z,11.68
2022-10-10T18:01:41.863Z,11.25
2022-10-10T18:04:15.627Z,16.02
2022-10-10T18:06:43.708Z,14.32
2022-10-10T18:09:12.361Z,17.10
2022-10-10T18:11:40.597Z,13.25
2022-10-10T18:14:08.827Z,16.50
2022-10-10T18:16:38.227Z,15.85
2022-10-10T18:19:09.826Z,13.95
2022-10-10T18:21:39.881Z,15.98
2022-10-10T18:24:08.821Z,14.57
2022-10-10T18:26:37.324Z,16.30
2022-10-10T18:29:05.710Z,15.95
2022-10-10T18:31:36.335Z,15.77
2022-10-10T18:34:05.601Z,14.85
2022-10-10T18:36:36.417Z,15.98
2022-10-10T18:39:10.331Z,15.60
2022-10-10T18:41:38.680Z,17.73
2022-10-10T18:44:08.876Z,21.95
2022-10-10T18:46:37.972Z,12.52
2022-10-10T18:49:09.317Z,16.63
2022-10-10T18:51:40.138Z,15.80
2022-10-10T18:54:11.537Z,22.20
2022-10-10T18:56:41.428Z,19.45
2022-10-10T18:59:13.834Z,14.50
2022-10-10T19:01:45.979Z,15.82
2022-10-10T19:04:16.274Z,18.10
2022-10-10T19:06:45.569Z,15.55
2022-10-10T19:09:18.517Z,13.38
2022-10-10T19:11:50.158Z,15.65
2022-10-10T19:14:19.796Z,18.30
2022-10-10T19:16:49.142Z,14.40
2022-10-10T19:19:19.705Z,15.40
2022-10-10T19:21:49.006Z,14.85
2022-10-10T19:24:21.641Z,14.05
2022-10-10T19:26:57.093Z,15.73
2022-10-10T19:29:27.089Z,16.88
2022-10-10T19:31:56.110Z,17.27
2022-10-10T19:34:24.971Z,13.90
2022-10-10T19:36:53.843Z,15.02
2022-10-10T19:39:23.978Z,18.73
2022-10-10T19:41:52.863Z,14.10
2022-10-10T19:44:21.608Z,19.77
2022-10-10T19:46:50.097Z,14.88
2022-10-10T19:49:18.584Z,18.92
2022-10-10T19:51:46.906Z,17.33
2022-10-10T19:54:15.289Z,15.60
2022-10-10T19:56:45.025Z,19.60
2022-10-10T19:59:13.399Z,15.32
2022-10-10T20:01:41.855Z,17.45
2022-10-10T20:04:10.109Z,15.70
2022-10-10T20:06:41.258Z,17.00
2022-10-10T20:09:10.986Z,18.73
2022-10-10T20:11:43.395Z,15.50
2022-10-10T20:14:14.135Z,16.67
2022-10-10T20:16:42.722Z,14.85
2022-10-10T20:19:11.116Z,14.88
2022-10-10T20:21:40.769Z,16.38
2022-10-10T20:24:12.282Z,17.17
2022-10-10T20:26:40.776Z,20.17
2022-10-10T20:29:09.652Z,16.05
2022-10-10T20:31:39.871Z,21.08
2022-10-10T20:34:08.829Z,17.17
2022-10-10T20:36:39.413Z,16.20
2022-10-10T20:39:10.662Z,14.88
2022-10-10T20:41:40.836Z,19.60
2022-10-10T20:44:11.938Z,15.40
2022-10-10T20:46:43.281Z,14.75
2022-10-10T20:49:14.376Z,18.55
2022-10-10T20:51:48.150Z,19.85
2022-10-10T20:54:17.829Z,26.45
2022-10-10T20:56:46.133Z,16.50
2022-10-10T20:59:15.309Z,18.80
2022-10-10T21:01:45.967Z,15.23
2022-10-10T21:04:15.267Z,16.17
2022-10-10T21:06:44.285Z,20.45
2022-10-10T21:09:14.703Z,17.65
2022-10-10T21:11:46.463Z,14.18
2022-10-10T21:16:46.806Z,15.60
2022-10-10T21:19:15.705Z,24.08
2022-10-10T21:21:44.949Z,16.73
2022-10-10T21:24:14.207Z,17.48
2022-10-10T21:26:43.815Z,24.67
2022-10-10T21:29:12.118Z,19.75
2022-10-10T21:31:42.373Z,16.63
2022-10-10T21:34:16.074Z,20.80
2022-10-10T21:36:47.614Z,17.10
2022-10-10T21:39:16.352Z,22.75
2022-10-10T21:41:44.964Z,13.60
2022-10-10T21:44:13.500Z,16.90
2022-10-10T21:46:42.104Z,16.73
2022-10-10T21:49:13.373Z,24.58
2022-10-10T21:51:45.667Z,16.85
2022-10-10T21:54:14.620Z,13.07
2022-10-10T21:56:42.943Z,18.77
2022-10-10T21:59:12.159Z,13.88
2022-10-10T22:01:40.660Z,15.75
2022-10-10T22:04:09.015Z,21.70
2022-10-10T22:06:38.791Z,22.73
2022-10-10T22:09:07.118Z,21.60
2022-10-10T22:11:36.013Z,17.38
2022-10-10T22:14:05.049Z,22.38
2022-10-10T22:16:34.463Z,19.48
2022-10-10T22:19:03.462Z,23.42
2022-10-10T22:21:34.745Z,23.77
2022-10-10T22:24:07.137Z,23.98
2022-10-10T22:26:35.742Z,21.95
2022-10-10T22:29:04.506Z,22.63
2022-10-10T22:31:35.693Z,18.90
2022-10-10T22:34:04.119Z,19.55
2022-10-10T22:36:32.312Z,24.17
2022-10-10T22:39:00.710Z,19.05
2022-10-10T22:41:30.381Z,19.83
2022-10-10T22:43:59.085Z,20.25
2022-10-10T22:46:27.301Z,20.48
2022-10-10T22:48:55.502Z,15.63
2022-10-10T22:51:23.705Z,20.95
2022-10-10T22:53:52.038Z,14.63
2022-10-10T22:56:22.759Z,17.15
2022-10-10T22:58:52.951Z,13.27
2022-10-10T23:01:23.015Z,9.63
2022-10-10T23:03:51.857Z,14.98
2022-10-10T23:06:20.118Z,15.98
2022-10-10T23:08:48.323Z,16.33
2022-10-10T23:11:16.791Z,12.23
2022-10-10T23:13:45.263Z,13.32
2022-10-10T23:16:15.495Z,13.43
2022-10-10T23:18:43.769Z,9.10
2022-10-10T23:21:11.944Z,13.13
2022-10-10T23:23:40.745Z,13.27
2022-10-10T23:26:10.754Z,15.75
2022-10-10T23:28:40.306Z,14.35
2022-10-10T23:31:10.458Z,15.48
2022-10-10T23:33:40.313Z,11.15
2022-10-10T23:36:12.281Z,10.38
2022-10-10T23:38:40.969Z,6.70
2022-10-10T23:41:09.517Z,5.75
2022-10-10T23:43:38.415Z,6.65
2022-10-10T23:46:07.269Z,7.65
2022-10-10T23:48:36.992Z,7.43
2022-10-10T23:51:07.481Z,8.43
2022-10-10T23:53:36.076Z,6.72
2022-10-10T23:56:04.539Z,7.38
2022-10-10T23:58:34.289Z,4.93
